createdAt,value
2023-03-17T00:01:24.112Z,52.99
2023-03-17T00:03:52.914Z,53.25
2023-03-17T00:06:29.551Z,53.43
2023-03-17T00:08:58.366Z,53.58
2023-03-17T00:11:28.034Z,53.41
2023-03-17T00:13:56.080Z,53.56
2023-03-17T00:16:27.359Z,53.51
2023-03-17T00:18:57.648Z,53.84
2023-03-17T00:21:32.246Z,53.99
2023-03-17T00:24:01.540Z,54.11
2023-03-17T00:26:29.583Z,54.09
2023-03-17T00:28:58.916Z,53.94
2023-03-17T00:31:29.865Z,53.91
2023-03-17T00:33:58.499Z,53.86
2023-03-17T00:36:29.585Z,53.71
2023-03-17T00:38:58.846Z,53.52
2023-03-17T00:41:27.418Z,53.53
2023-03-17T00:43:55.592Z,53.54
2023-03-17T00:46:28.841Z,53.33
2023-03-17T00:48:58.609Z,53.39
2023-03-17T00:51:27.113Z,53.40
2023-03-17T00:53:56.675Z,53.63
2023-03-17T00:56:24.784Z,53.67
2023-03-17T00:58:53.500Z,53.55
2023-03-17T01:01:21.696Z,53.58
2023-03-17T01:03:49.807Z,53.43
2023-03-17T01:06:17.836Z,53.60
2023-03-17T01:08:46.627Z,53.61
2023-03-17T01:11:19.004Z,53.67
2023-03-17T01:13:48.388Z,53.67
2023-03-17T01:16:17.177Z,53.70
2023-03-17T01:18:45.794Z,53.75
2023-03-17T01:21:14.162Z,53.73
2023-03-17T01:23:43.623Z,53.78
2023-03-17T01:26:11.847Z,54.11
2023-03-17T01:28:40.713Z,54.24
2023-03-17T01:31:09.757Z,54.93
2023-03-17T01:33:38.320Z,55.28
2023-03-17T01:36:06.805Z,55.12
2023-03-17T01:39:15.627Z,55.51
2023-03-17T01:41:43.919Z,56.06
2023-03-17T01:44:17.360Z,56.24
2023-03-17T01:46:47.532Z,56.18
2023-03-17T01:49:43.301Z,56.09
2023-03-17T01:52:18.244Z,56.10
2023-03-17T01:55:02.293Z,56.17
2023-03-17T01:57:37.231Z,56.51
2023-03-17T02:00:08.618Z,56.38
2023-03-17T02:02:45.502Z,56.58
2023-03-17T02:05:18.142Z,56.62
2023-03-17T02:07:47.262Z,56.58
2023-03-17T02:10:19.570Z,56.57
2023-03-17T02:12:53.241Z,57.09
2023-03-17T02:15:21.776Z,57.05
2023-03-17T02:17:49.995Z,57.05
2023-03-17T02:20:24.001Z,57.40
2023-03-17T02:22:55.105Z,57.53
2023-03-17T02:25:26.415Z,57.59
2023-03-17T02:28:00.097Z,57.82
2023-03-17T02:30:29.140Z,57.86
2023-03-17T02:32:57.457Z,58.04
2023-03-17T02:35:25.524Z,57.75
2023-03-17T02:37:53.460Z,57.78
2023-03-17T02:40:41.937Z,57.78
2023-03-17T02:43:10.734Z,57.77
2023-03-17T02:45:38.676Z,57.81
2023-03-17T02:48:07.388Z,57.57
2023-03-17T02:50:35.646Z,57.42
2023-03-17T02:53:03.556Z,57.25
2023-03-17T02:55:31.851Z,57.29
2023-03-17T02:58:01.879Z,57.32
2023-03-17T03:00:30.327Z,57.22
2023-03-17T03:02:58.620Z,57.29
2023-03-17T03:05:27.040Z,57.35
2023-03-17T03:07:55.308Z,57.55
2023-03-17T03:10:44.399Z,57.70
2023-03-17T03:13:12.616Z,57.66
2023-03-17T03:15:42.708Z,57.53
2023-03-17T03:18:10.710Z,57.44
2023-03-17T03:20:38.880Z,57.44
2023-03-17T03:23:06.695Z,57.41
2023-03-17T03:25:37.762Z,57.34
2023-03-17T03:28:08.341Z,57.55
2023-03-17T03:30:37.241Z,57.55
2023-03-17T03:33:05.698Z,57.85
2023-03-17T03:35:34.631Z,57.85
2023-03-17T03:38:02.779Z,57.74
2023-03-17T03:40:31.412Z,57.75
2023-03-17T03:42:59.925Z,57.69
2023-03-17T03:45:29.936Z,57.61
2023-03-17T03:47:57.802Z,57.47
2023-03-17T03:50:25.928Z,57.38
2023-03-17T03:52:54.346Z,57.45
2023-03-17T03:55:22.495Z,57.36
2023-03-17T03:57:50.345Z,57.35
2023-03-17T04:00:19.820Z,57.38
2023-03-17T04:02:47.779Z,57.34
2023-03-17T04:05:18.912Z,57.32
2023-03-17T04:07:47.957Z,57.34
2023-03-17T04:10:17.021Z,57.45
2023-03-17T04:12:46.885Z,57.47
2023-03-17T04:15:17.860Z,57.56
2023-03-17T04:17:46.522Z,57.86
2023-03-17T04:20:16.564Z,57.71
2023-03-17T04:22:45.216Z,57.90
2023-03-17T04:25:15.098Z,57.91
2023-03-17T04:27:43.600Z,57.92
2023-03-17T04:30:13.962Z,57.99
2023-03-17T04:32:42.195Z,57.94
2023-03-17T04:35:15.839Z,57.77
2023-03-17T04:37:44.274Z,57.64
2023-03-17T04:40:14.051Z,57.53
2023-03-17T04:42:42.345Z,57.69
2023-03-17T04:45:12.997Z,57.74
2023-03-17T04:47:41.352Z,57.82
2023-03-17T04:50:10.719Z,58.08
2023-03-17T04:53:19.170Z,58.04
2023-03-17T04:55:47.238Z,58.34
2023-03-17T04:58:29.479Z,58.56
2023-03-17T05:00:59.382Z,58.31
2023-03-17T05:03:28.727Z,58.31
2023-03-17T05:05:58.036Z,58.17
2023-03-17T05:08:28.649Z,58.06
2023-03-17T05:10:57.617Z,57.85
2023-03-17T05:13:26.420Z,57.89
2023-03-17T05:15:55.962Z,57.90
2023-03-17T05:18:25.588Z,57.90
2023-03-17T05:20:53.793Z,57.90
2023-03-17T05:23:23.265Z,57.88
2023-03-17T05:25:51.327Z,57.92
2023-03-17T05:28:22.387Z,57.94
2023-03-17T05:30:51.140Z,57.58
2023-03-17T05:33:20.328Z,57.79
2023-03-17T05:35:49.443Z,57.83
2023-03-17T05:38:17.482Z,57.71
2023-03-17T05:40:45.944Z,57.66
2023-03-17T05:43:14.164Z,57.49
2023-03-17T05:45:42.416Z,57.36
2023-03-17T05:48:12.431Z,57.21
2023-03-17T05:50:41.850Z,57.04
2023-03-17T05:53:10.815Z,57.02
2023-03-17T05:55:39.544Z,57.00
2023-03-17T05:58:08.008Z,56.87
2023-03-17T06:05:53.856Z,57.06
2023-03-17T06:08:28.379Z,56.98
2023-03-17T06:10:56.914Z,56.89
2023-03-17T06:13:24.785Z,56.96
2023-03-17T06:15:52.836Z,56.70
2023-03-17T06:18:22.314Z,56.39
2023-03-17T06:20:51.224Z,56.18
2023-03-17T06:27:11.061Z,56.05
2023-03-17T06:29:38.957Z,55.95
2023-03-17T06:32:19.699Z,56.04
2023-03-17T06:34:48.492Z,56.00
2023-03-17T06:37:16.700Z,55.83
2023-03-17T06:39:45.332Z,55.80
2023-03-17T06:42:13.311Z,55.49
2023-03-17T06:44:41.760Z,55.33
2023-03-17T06:47:10.597Z,55.38
2023-03-17T06:49:38.644Z,55.45
2023-03-17T06:52:06.600Z,55.32
2023-03-17T06:54:36.649Z,55.08
2023-03-17T06:57:04.768Z,54.99
2023-03-17T06:59:33.429Z,54.93
2023-03-17T07:02:01.371Z,54.65
2023-03-17T07:04:29.354Z,54.58
2023-03-17T07:07:37.767Z,54.53
2023-03-17T07:10:07.077Z,54.43
2023-03-17T07:12:35.122Z,54.01
2023-03-17T07:15:03.759Z,53.46
2023-03-17T07:17:31.901Z,53.18
2023-03-17T07:20:01.521Z,53.07
2023-03-17T07:22:29.558Z,52.46
2023-03-17T07:24:57.486Z,51.26
2023-03-17T07:27:26.701Z,49.63
2023-03-17T07:29:54.696Z,48.07
2023-03-17T07:32:22.880Z,47.57
2023-03-17T07:34:50.751Z,47.25
2023-03-17T07:37:19.614Z,46.83
2023-03-17T07:39:48.734Z,46.12
2023-03-17T07:42:17.825Z,44.97
2023-03-17T07:44:46.034Z,44.38
2023-03-17T07:47:14.867Z,44.12
2023-03-17T07:49:43.099Z,43.14
2023-03-17T07:52:12.879Z,42.19
2023-03-17T07:54:42.979Z,41.04
2023-03-17T07:57:12.294Z,38.87
2023-03-17T07:59:41.766Z,38.12
2023-03-17T08:02:16.487Z,37.85
2023-03-17T08:04:45.689Z,36.86
2023-03-17T08:07:14.775Z,37.30
2023-03-17T08:09:43.038Z,36.06
2023-03-17T08:12:11.896Z,35.43
2023-03-17T08:14:41.527Z,34.33
2023-03-17T08:17:10.627Z,34.13
2023-03-17T08:19:38.620Z,33.44
2023-03-17T08:22:06.971Z,32.02
2023-03-17T08:24:35.581Z,31.69
2023-03-17T08:27:04.271Z,31.44
2023-03-17T08:29:32.280Z,31.06
2023-03-17T08:32:00.535Z,30.86
2023-03-17T08:34:28.582Z,28.02
2023-03-17T08:36:56.782Z,27.90
2023-03-17T08:39:24.644Z,27.79
2023-03-17T08:41:53.244Z,26.49
2023-03-17T08:44:21.961Z,26.05
2023-03-17T08:46:51.596Z,25.64
2023-03-17T08:49:19.620Z,25.45
2023-03-17T08:51:47.568Z,25.92
2023-03-17T08:54:15.998Z,25.48
2023-03-17T08:56:44.069Z,25.54
2023-03-17T08:59:12.628Z,24.83
2023-03-17T09:01:42.118Z,24.63
2023-03-17T09:04:11.161Z,24.28
2023-03-17T09:06:44.047Z,23.97
2023-03-17T09:09:18.648Z,24.09
2023-03-17T09:11:46.618Z,24.19
2023-03-17T09:14:15.433Z,23.99
2023-03-17T09:16:43.366Z,23.70
2023-03-17T09:19:11.442Z,23.09
2023-03-17T09:21:39.384Z,23.46
2023-03-17T09:24:07.416Z,23.52
2023-03-17T09:26:35.382Z,23.43
2023-03-17T09:29:04.775Z,23.21
2023-03-17T09:31:33.910Z,22.77
2023-03-17T09:34:02.650Z,22.52
2023-03-17T09:36:31.838Z,22.25
2023-03-17T09:39:00.569Z,22.06
2023-03-17T09:42:06.376Z,22.14
2023-03-17T09:44:46.164Z,21.75
2023-03-17T09:47:42.814Z,21.92
2023-03-17T09:50:17.780Z,21.70
2023-03-17T09:52:46.283Z,21.88
2023-03-17T10:00:50.686Z,21.49
2023-03-17T10:03:26.269Z,21.39
2023-03-17T10:06:33.756Z,21.80
2023-03-17T10:09:18.757Z,21.25
2023-03-17T10:11:50.785Z,20.16
2023-03-17T10:14:38.656Z,20.29
2023-03-17T10:17:18.552Z,20.58
2023-03-17T10:20:12.340Z,19.70
2023-03-17T10:23:08.427Z,19.91
2023-03-17T10:25:37.479Z,20.26
2023-03-17T10:28:23.683Z,20.43
2023-03-17T10:30:52.838Z,20.17
2023-03-17T10:33:21.679Z,19.66
2023-03-17T10:35:49.794Z,19.84
2023-03-17T10:38:23.303Z,20.35
2023-03-17T10:41:00.085Z,20.09
2023-03-17T10:43:36.296Z,19.60
2023-03-17T10:46:06.836Z,19.58
2023-03-17T10:48:38.893Z,20.00
2023-03-17T10:51:11.816Z,19.72
2023-03-17T10:53:43.957Z,19.36
2023-03-17T10:56:24.762Z,19.40
2023-03-17T10:58:55.659Z,19.63
2023-03-17T11:01:36.056Z,19.79
2023-03-17T11:04:29.768Z,19.66
2023-03-17T11:07:00.450Z,20.06
2023-03-17T11:09:35.166Z,19.90
2023-03-17T11:12:08.615Z,19.76
2023-03-17T11:14:36.622Z,19.78
2023-03-17T11:17:17.640Z,20.27
2023-03-17T11:20:13.206Z,20.52
2023-03-17T11:22:46.663Z,20.17
2023-03-17T11:25:23.525Z,19.60
2023-03-17T11:28:16.994Z,18.73
2023-03-17T11:31:08.646Z,18.94
2023-03-17T11:33:57.413Z,19.49
2023-03-17T11:36:50.683Z,19.55
2023-03-17T11:39:46.274Z,19.17
2023-03-17T11:42:41.194Z,18.99
2023-03-17T11:45:12.563Z,18.57
2023-03-17T11:47:43.456Z,19.00
2023-03-17T11:50:23.524Z,18.98
2023-03-17T11:52:58.048Z,19.09
2023-03-17T11:55:49.096Z,18.78
2023-03-17T11:58:31.719Z,18.87
2023-03-17T12:01:02.348Z,19.67
2023-03-17T12:03:52.172Z,19.87
2023-03-17T12:06:32.620Z,19.90
2023-03-17T12:09:08.625Z,20.15
2023-03-17T12:11:40.837Z,19.85
2023-03-17T12:14:33.901Z,19.91
2023-03-17T12:17:21.362Z,20.03
2023-03-17T12:20:28.193Z,20.10
2023-03-17T12:23:06.744Z,19.73
2023-03-17T12:25:46.665Z,19.68
2023-03-17T12:28:20.283Z,20.03
2023-03-17T12:30:56.049Z,19.85
2023-03-17T12:33:43.985Z,19.34
2023-03-17T12:36:16.309Z,19.17
2023-03-17T12:39:02.122Z,19.23
2023-03-17T12:41:47.642Z,19.24
2023-03-17T12:44:45.895Z,18.91
2023-03-17T12:47:29.148Z,18.69
2023-03-17T12:50:10.853Z,18.47
2023-03-17T12:53:20.453Z,18.36
2023-03-17T12:55:52.665Z,18.43
2023-03-17T12:58:29.150Z,18.41
2023-03-17T13:01:23.271Z,18.20
2023-03-17T13:04:27.956Z,18.46
2023-03-17T13:07:17.359Z,19.15
2023-03-17T13:09:49.891Z,19.89
2023-03-17T13:12:39.809Z,20.05
2023-03-17T13:15:30.844Z,20.15
2023-03-17T13:18:14.576Z,19.74
2023-03-17T13:20:42.506Z,19.90
2023-03-17T13:23:10.430Z,19.78
2023-03-17T13:25:38.402Z,19.96
2023-03-17T13:28:12.442Z,20.16
2023-03-17T13:30:40.375Z,20.39
2023-03-17T13:33:11.572Z,20.42
2023-03-17T13:35:46.319Z,20.54
2023-03-17T13:38:42.129Z,20.57
2023-03-17T13:41:37.905Z,20.67
2023-03-17T13:44:15.866Z,20.59
2023-03-17T13:46:47.091Z,20.42
2023-03-17T13:49:26.980Z,20.40
2023-03-17T13:52:01.980Z,20.51
2023-03-17T13:54:40.739Z,20.30
2023-03-17T13:57:29.368Z,20.06
2023-03-17T14:00:25.945Z,19.84
2023-03-17T14:03:12.261Z,20.01
2023-03-17T14:05:42.773Z,20.18
2023-03-17T14:08:16.602Z,20.21
2023-03-17T14:10:54.394Z,20.11
2023-03-17T14:13:37.021Z,20.58
2023-03-17T14:16:14.305Z,20.82
2023-03-17T14:18:54.130Z,20.77
2023-03-17T14:21:25.013Z,20.44
2023-03-17T14:23:56.717Z,20.50
2023-03-17T14:26:26.946Z,20.30
2023-03-17T14:28:55.772Z,20.00
2023-03-17T14:31:27.388Z,20.17
2023-03-17T14:33:58.035Z,20.29
2023-03-17T14:36:28.241Z,20.41
2023-03-17T14:38:57.301Z,20.45
2023-03-17T14:41:29.408Z,20.79
2023-03-17T14:43:58.955Z,21.03
2023-03-17T14:46:32.850Z,21.22
2023-03-17T14:49:20.963Z,21.28
2023-03-17T14:51:51.382Z,21.20
2023-03-17T14:54:28.742Z,21.15
2023-03-17T14:57:02.417Z,21.13
2023-03-17T14:59:35.039Z,21.12
2023-03-17T15:02:23.697Z,21.16
2023-03-17T15:04:59.081Z,21.18
2023-03-17T15:07:39.969Z,21.41
2023-03-17T15:10:20.007Z,21.75
2023-03-17T15:12:48.777Z,21.85
2023-03-17T15:15:27.594Z,22.05
2023-03-17T15:18:03.360Z,22.10
2023-03-17T15:20:35.591Z,21.86
2023-03-17T15:23:05.985Z,21.75
2023-03-17T15:25:35.382Z,22.01
2023-03-17T15:28:11.325Z,22.27
2023-03-17T15:30:51.295Z,22.33
2023-03-17T15:33:39.903Z,22.53
2023-03-17T15:36:29.207Z,22.80
2023-03-17T15:38:59.228Z,23.02
2023-03-17T15:41:27.254Z,23.14
2023-03-17T15:43:55.556Z,23.42
2023-03-17T15:46:27.745Z,23.62
2023-03-17T15:48:55.714Z,23.82
2023-03-17T15:51:23.680Z,23.86
2023-03-17T15:53:51.569Z,24.10
2023-03-17T15:56:21.393Z,24.16
2023-03-17T15:58:52.411Z,24.33
2023-03-17T16:01:21.305Z,24.45
2023-03-17T16:03:49.673Z,24.50
2023-03-17T16:06:21.500Z,24.72
2023-03-17T16:08:50.720Z,24.83
2023-03-17T16:11:28.394Z,24.91
2023-03-17T16:13:59.708Z,25.11
2023-03-17T16:16:36.794Z,25.17
2023-03-17T16:19:07.121Z,25.28
2023-03-17T16:21:35.058Z,25.57
2023-03-17T16:24:03.160Z,25.59
2023-03-17T16:26:31.137Z,25.54
2023-03-17T16:28:59.149Z,25.90
2023-03-17T16:31:31.775Z,25.81
2023-03-17T16:34:00.229Z,26.04
2023-03-17T16:36:28.176Z,26.02
2023-03-17T16:38:56.047Z,26.23
2023-03-17T16:41:27.457Z,26.38
2023-03-17T16:44:01.406Z,26.52
2023-03-17T16:46:34.993Z,26.58
2023-03-17T16:49:04.370Z,26.77
2023-03-17T16:51:32.250Z,26.85
2023-03-17T16:54:00.249Z,26.90
2023-03-17T16:56:28.943Z,26.99
2023-03-17T16:58:57.383Z,27.16
2023-03-17T17:01:28.117Z,27.22
2023-03-17T17:03:56.688Z,27.37
2023-03-17T17:06:24.794Z,27.61
2023-03-17T17:08:53.096Z,27.63
2023-03-17T17:11:21.673Z,27.87
2023-03-17T17:13:50.050Z,28.10
2023-03-17T17:16:23.101Z,28.29
2023-03-17T17:18:51.081Z,28.58
2023-03-17T17:21:19.261Z,28.50
2023-03-17T17:23:47.295Z,28.80
2023-03-17T17:26:15.818Z,29.03
2023-03-17T17:28:43.767Z,29.19
2023-03-17T17:31:11.900Z,29.29
2023-03-17T17:33:40.389Z,29.35
2023-03-17T17:36:15.026Z,29.48
2023-03-17T17:38:43.841Z,29.56
2023-03-17T17:41:12.962Z,29.74
2023-03-17T17:43:41.264Z,30.03
2023-03-17T17:46:17.094Z,30.27
2023-03-17T17:48:45.538Z,30.13
2023-03-17T17:51:14.031Z,30.28
2023-03-17T17:53:42.217Z,30.45
2023-03-17T17:56:18.465Z,30.29
2023-03-17T17:58:46.672Z,30.41
2023-03-17T18:01:19.907Z,30.52
2023-03-17T18:03:48.562Z,30.57
2023-03-17T18:06:18.021Z,30.55
2023-03-17T18:08:46.310Z,30.64
2023-03-17T18:11:14.260Z,30.57
2023-03-17T18:13:42.269Z,30.59
2023-03-17T18:16:15.182Z,30.68
2023-03-17T18:18:45.845Z,30.99
2023-03-17T18:21:14.574Z,31.11
2023-03-17T18:23:47.073Z,31.21
2023-03-17T18:26:17.464Z,31.40
2023-03-17T18:28:45.541Z,31.39
2023-03-17T18:31:18.868Z,31.48
2023-03-17T18:33:49.674Z,31.52
2023-03-17T18:36:19.904Z,31.79
2023-03-17T18:38:47.963Z,31.86
2023-03-17T18:41:15.959Z,31.90
2023-03-17T18:43:45.041Z,31.77
2023-03-17T18:46:13.180Z,32.12
2023-03-17T18:48:41.257Z,32.18
2023-03-17T18:51:09.740Z,32.21
2023-03-17T18:53:39.338Z,32.48
2023-03-17T18:56:07.661Z,32.42
2023-03-17T18:58:36.460Z,32.69
2023-03-17T19:01:33.371Z,32.74
2023-03-17T19:04:26.306Z,32.95
2023-03-17T19:06:54.243Z,32.73
2023-03-17T19:09:22.447Z,32.93
2023-03-17T19:11:50.396Z,32.97
2023-03-17T19:14:18.324Z,33.03
2023-03-17T19:16:46.784Z,33.13
2023-03-17T19:19:14.677Z,33.19
2023-03-17T19:21:42.554Z,33.33
2023-03-17T19:24:12.242Z,33.11
2023-03-17T19:26:40.206Z,33.14
2023-03-17T19:29:10.087Z,33.13
2023-03-17T19:31:41.540Z,33.50
2023-03-17T19:34:12.613Z,33.59
2023-03-17T19:36:43.154Z,33.54
2023-03-17T19:39:11.106Z,33.62
2023-03-17T19:41:39.317Z,33.66
2023-03-17T19:44:07.830Z,33.67
2023-03-17T19:46:37.311Z,33.60
2023-03-17T19:49:05.532Z,33.77
2023-03-17T19:51:36.133Z,33.92
2023-03-17T19:54:05.509Z,34.29
2023-03-17T19:56:33.886Z,34.27
2023-03-17T19:59:02.262Z,34.26
2023-03-17T20:01:32.136Z,34.29
2023-03-17T20:04:00.596Z,34.49
2023-03-17T20:06:29.690Z,34.56
2023-03-17T20:08:57.985Z,34.63
2023-03-17T20:11:25.915Z,34.73
2023-03-17T20:13:53.786Z,34.83
2023-03-17T20:16:22.197Z,34.70
2023-03-17T20:18:50.101Z,34.80
2023-03-17T20:21:18.133Z,34.75
2023-03-17T20:23:46.337Z,34.93
2023-03-17T20:26:14.321Z,34.89
2023-03-17T20:28:42.472Z,35.03
2023-03-17T20:31:10.773Z,35.10
2023-03-17T20:33:38.914Z,35.03
2023-03-17T20:36:07.166Z,35.15
2023-03-17T20:38:37.046Z,35.40
2023-03-17T20:41:07.609Z,35.37
2023-03-17T20:43:38.277Z,35.33
2023-03-17T20:46:15.191Z,35.54
2023-03-17T20:48:44.558Z,35.81
2023-03-17T20:51:16.602Z,35.80
2023-03-17T20:53:46.398Z,35.78
2023-03-17T20:56:16.268Z,35.94
2023-03-17T20:58:45.529Z,36.21
2023-03-17T21:01:14.650Z,36.34
2023-03-17T21:03:44.110Z,36.47
2023-03-17T21:06:12.421Z,36.67
2023-03-17T21:08:40.864Z,36.78
2023-03-17T21:11:11.999Z,37.08
2023-03-17T21:13:40.144Z,37.23
2023-03-17T21:16:08.719Z,37.25
2023-03-17T21:18:37.165Z,37.22
2023-03-17T21:21:05.314Z,37.50
2023-03-17T21:23:33.265Z,37.47
2023-03-17T21:26:01.318Z,37.76
2023-03-17T21:28:29.232Z,37.89
2023-03-17T21:30:57.709Z,38.15
2023-03-17T21:33:25.752Z,38.14
2023-03-17T21:35:53.693Z,38.11
2023-03-17T21:38:22.165Z,38.38
2023-03-17T21:40:50.210Z,38.61
2023-03-17T21:43:18.857Z,38.36
2023-03-17T21:45:46.930Z,38.78
2023-03-17T21:48:15.188Z,38.84
2023-03-17T21:50:44.227Z,38.84
2023-03-17T21:53:16.778Z,39.00
2023-03-17T21:55:45.395Z,38.88
2023-03-17T21:58:13.460Z,38.99
2023-03-17T22:00:45.630Z,38.99
2023-03-17T22:03:14.258Z,39.07
2023-03-17T22:05:42.409Z,39.05
2023-03-17T22:08:10.708Z,38.98
2023-03-17T22:10:40.200Z,39.05
2023-03-17T22:13:08.093Z,39.40
2023-03-17T22:15:36.528Z,39.26
2023-03-17T22:18:05.182Z,39.37
2023-03-17T22:20:33.466Z,39.63
2023-03-17T22:23:02.324Z,39.62
2023-03-17T22:25:30.261Z,39.73
2023-03-17T22:27:58.193Z,39.90
2023-03-17T22:30:26.152Z,39.77
2023-03-17T22:32:54.135Z,39.78
2023-03-17T22:35:23.526Z,39.78
2023-03-17T22:37:51.593Z,39.87
2023-03-17T22:40:19.707Z,39.82
2023-03-17T22:42:47.603Z,39.70
2023-03-17T22:45:16.190Z,39.98
2023-03-17T22:47:44.820Z,39.90
2023-03-17T22:50:13.129Z,39.97
2023-03-17T22:52:41.659Z,40.14
2023-03-17T22:55:10.738Z,40.10
2023-03-17T22:57:38.723Z,40.16
2023-03-17T23:00:17.058Z,40.30
2023-03-17T23:02:45.916Z,40.38
2023-03-17T23:05:14.677Z,40.56
2023-03-17T23:07:51.575Z,40.71
2023-03-17T23:10:25.424Z,40.86
2023-03-17T23:12:54.024Z,41.06
2023-03-17T23:15:22.792Z,41.15
2023-03-17T23:17:52.124Z,40.93
2023-03-17T23:20:20.191Z,40.95
2023-03-17T23:22:48.344Z,41.02
2023-03-17T23:25:16.441Z,40.93
2023-03-17T23:27:45.240Z,41.19
2023-03-17T23:30:15.248Z,41.20
2023-03-17T23:32:43.353Z,41.28
2023-03-17T23:35:13.628Z,41.33
2023-03-17T23:37:42.007Z,41.31
2023-03-17T23:40:11.641Z,41.11
2023-03-17T23:42:39.583Z,41.57
2023-03-17T23:45:08.695Z,41.40
2023-03-17T23:47:38.442Z,41.34
2023-03-17T23:50:07.478Z,41.63
2023-03-17T23:52:36.534Z,41.66
2023-03-17T23:55:06.070Z,41.50
2023-03-17T23:57:35.081Z,41.78
